createdAt,value
2023-05-01T00:02:52.483Z,10.65
2023-05-01T00:06:08.318Z,10.63
2023-05-01T00:09:11.285Z,10.51
2023-05-01T00:12:14.734Z,10.54
2023-05-01T00:15:17.515Z,10.52
2023-05-01T00:18:20.252Z,10.54
2023-05-01T00:21:23.078Z,10.57
2023-05-01T00:24:26.000Z,10.55
2023-05-01T00:27:28.805Z,10.49
2023-05-01T00:30:33.628Z,10.49
2023-05-01T00:33:36.455Z,10.68
2023-05-01T00:36:39.541Z,10.71
2023-05-01T00:39:42.441Z,10.84
2023-05-01T00:42:45.721Z,10.79
2023-05-01T00:45:49.001Z,10.83
2023-05-01T00:51:56.238Z,10.83
2023-05-01T00:54:59.428Z,10.72
2023-05-01T00:58:02.677Z,10.61
2023-05-01T01:01:05.591Z,10.67
2023-05-01T01:04:08.952Z,10.65
2023-05-01T01:07:36.193Z,10.62
2023-05-01T01:11:15.694Z,10.54
2023-05-01T01:14:43.342Z,10.51
2023-05-01T01:17:57.570Z,10.56
2023-05-01T01:21:07.062Z,10.44
2023-05-01T01:24:34.357Z,10.42
2023-05-01T01:27:58.872Z,10.50
2023-05-01T01:31:17.640Z,10.56
2023-05-01T01:34:33.679Z,10.51
2023-05-01T01:37:44.729Z,10.43
2023-05-01T01:40:58.711Z,10.39
2023-05-01T01:44:12.500Z,10.42
2023-05-01T01:47:17.111Z,10.31
2023-05-01T01:50:24.878Z,10.36
2023-05-01T01:53:31.424Z,10.29
2023-05-01T01:56:36.510Z,10.23
2023-05-01T01:59:42.346Z,10.26
2023-05-01T02:02:47.345Z,10.23
2023-05-01T02:05:52.374Z,10.12
2023-05-01T02:08:57.309Z,10.01
2023-05-01T02:12:02.943Z,10.01
2023-05-01T02:15:08.245Z,10.04
2023-05-01T02:18:12.893Z,10.09
2023-05-01T02:21:16.825Z,10.11
2023-05-01T02:24:22.869Z,10.13
2023-05-01T02:27:32.486Z,10.06
2023-05-01T02:30:36.616Z,10.12
2023-05-01T02:33:39.414Z,10.10
2023-05-01T02:36:42.795Z,10.15
2023-05-01T02:39:46.070Z,10.21
2023-05-01T02:42:52.105Z,10.09
2023-05-01T02:45:59.212Z,10.05
2023-05-01T02:49:03.914Z,10.06
2023-05-01T02:52:07.920Z,9.99
2023-05-01T02:55:11.637Z,9.92
2023-05-01T02:58:18.302Z,9.91
2023-05-01T03:01:21.521Z,9.81
2023-05-01T03:04:24.645Z,9.72
2023-05-01T03:07:35.089Z,9.72
2023-05-01T03:10:42.676Z,9.84
2023-05-01T03:13:46.523Z,9.91
2023-05-01T03:16:49.546Z,9.92
2023-05-01T03:19:52.606Z,9.99
2023-05-01T03:22:55.921Z,9.95
2023-05-01T03:25:59.629Z,9.93
2023-05-01T03:29:02.615Z,9.99
2023-05-01T03:32:06.680Z,10.04
2023-05-01T03:35:10.054Z,10.04
2023-05-01T03:38:13.625Z,10.06
2023-05-01T03:41:39.678Z,10.08
2023-05-01T03:45:03.246Z,10.16
2023-05-01T03:48:06.605Z,10.24
2023-05-01T03:51:09.515Z,10.24
2023-05-01T03:54:13.173Z,10.26
2023-05-01T03:57:37.246Z,10.33
2023-05-01T04:00:40.196Z,10.45
2023-05-01T04:03:43.161Z,10.58
2023-05-01T04:06:46.240Z,10.56
2023-05-01T04:09:49.267Z,10.70
2023-05-01T04:12:52.086Z,10.80
2023-05-01T04:15:56.296Z,10.92
2023-05-01T04:18:59.913Z,11.02
2023-05-01T04:22:02.776Z,10.92
2023-05-01T04:25:07.925Z,10.95
2023-05-01T04:28:12.718Z,11.00
2023-05-01T04:31:15.974Z,11.03
2023-05-01T04:34:19.762Z,11.14
2023-05-01T04:37:22.620Z,11.19
2023-05-01T04:40:25.618Z,11.42
2023-05-01T04:43:28.562Z,12.31
2023-05-01T04:46:31.707Z,12.82
2023-05-01T04:49:40.135Z,12.57
2023-05-01T04:52:43.071Z,13.17
2023-05-01T04:55:45.881Z,13.39
2023-05-01T04:58:51.077Z,13.77
2023-05-01T05:01:57.796Z,14.06
2023-05-01T05:05:00.995Z,14.85
2023-05-01T05:08:04.560Z,14.35
2023-05-01T05:11:12.220Z,14.17
2023-05-01T05:14:33.724Z,13.73
2023-05-01T05:17:36.867Z,13.60
2023-05-01T05:20:40.178Z,13.37
2023-05-01T05:23:42.992Z,13.66
2023-05-01T05:26:45.934Z,13.87
2023-05-01T05:29:48.812Z,14.00
2023-05-01T05:32:51.729Z,14.23
2023-05-01T05:35:56.200Z,14.92
2023-05-01T05:39:03.663Z,14.66
2023-05-01T05:42:06.729Z,15.32
2023-05-01T05:45:10.530Z,15.56
2023-05-01T05:48:13.616Z,15.48
2023-05-01T05:51:17.407Z,15.18
2023-05-01T05:54:20.207Z,15.36
2023-05-01T05:57:24.976Z,15.52
2023-05-01T06:00:28.239Z,15.58
2023-05-01T06:03:32.304Z,15.32
2023-05-01T06:06:37.757Z,15.95
2023-05-01T06:09:41.713Z,15.85
2023-05-01T06:12:48.312Z,15.07
2023-05-01T06:16:04.712Z,14.85
2023-05-01T06:19:08.010Z,14.60
2023-05-01T06:22:11.449Z,14.90
2023-05-01T06:25:24.611Z,14.76
2023-05-01T06:28:27.683Z,14.98
2023-05-01T06:31:31.133Z,14.99
2023-05-01T06:34:34.746Z,14.61
2023-05-01T06:37:38.662Z,15.35
2023-05-01T06:40:43.237Z,15.29
2023-05-01T06:43:46.251Z,15.76
2023-05-01T06:46:49.136Z,16.37
2023-05-01T06:49:51.945Z,16.44
2023-05-01T06:52:54.744Z,17.30
2023-05-01T06:55:57.636Z,17.66
2023-05-01T06:59:00.698Z,18.41
2023-05-01T07:02:04.517Z,18.23
2023-05-01T07:05:07.723Z,18.85
2023-05-01T07:08:10.625Z,18.66
2023-05-01T07:11:13.423Z,18.02
2023-05-01T07:14:16.735Z,19.19
2023-05-01T07:17:20.052Z,18.61
2023-05-01T07:20:23.119Z,19.56
2023-05-01T07:23:26.434Z,19.64
2023-05-01T07:26:29.569Z,19.89
2023-05-01T07:29:32.449Z,19.34
2023-05-01T07:32:35.266Z,19.69
2023-05-01T07:35:38.200Z,19.92
2023-05-01T07:38:41.457Z,21.66
2023-05-01T07:41:47.970Z,21.97
2023-05-01T07:45:00.406Z,22.91
2023-05-01T07:48:03.617Z,22.09
2023-05-01T07:51:06.531Z,21.87
2023-05-01T07:54:09.505Z,22.96
2023-05-01T07:57:12.494Z,22.72
2023-05-01T08:00:15.879Z,23.71
2023-05-01T08:03:18.777Z,20.26
2023-05-01T08:06:21.783Z,21.23
2023-05-01T08:09:25.056Z,23.37
2023-05-01T08:12:29.230Z,23.46
2023-05-01T08:15:31.955Z,23.20
2023-05-01T08:18:34.815Z,24.54
2023-05-01T08:21:37.733Z,24.94
2023-05-01T08:24:42.872Z,23.53
2023-05-01T08:27:45.666Z,24.41
2023-05-01T08:30:51.678Z,24.93
2023-05-01T08:33:54.595Z,24.06
2023-05-01T08:36:57.602Z,24.23
2023-05-01T08:40:00.493Z,23.46
2023-05-01T08:43:06.458Z,23.67
2023-05-01T08:46:13.806Z,26.11
2023-05-01T08:49:18.843Z,27.13
2023-05-01T08:52:23.332Z,26.30
2023-05-01T08:55:28.071Z,27.32
2023-05-01T08:58:34.491Z,27.72
2023-05-01T09:01:38.695Z,25.66
2023-05-01T09:04:42.152Z,24.55
2023-05-01T09:07:46.748Z,26.02
2023-05-01T09:10:52.372Z,26.96
2023-05-01T09:13:55.791Z,26.68
2023-05-01T09:16:58.749Z,24.59
2023-05-01T09:20:08.558Z,25.57
2023-05-01T09:23:12.168Z,26.37
2023-05-01T09:26:15.352Z,27.03
2023-05-01T09:29:37.923Z,28.16
2023-05-01T09:32:42.573Z,28.60
2023-05-01T09:35:56.258Z,27.93
2023-05-01T09:39:02.685Z,28.32
2023-05-01T09:42:06.131Z,29.36
2023-05-01T09:45:15.876Z,30.85
2023-05-01T09:48:19.530Z,31.58
2023-05-01T09:51:30.560Z,28.99
2023-05-01T09:54:33.449Z,30.45
2023-05-01T09:57:38.349Z,29.80
2023-05-01T10:00:49.713Z,30.63
2023-05-01T10:03:56.849Z,31.42
2023-05-01T10:07:13.973Z,30.40
2023-05-01T10:10:21.513Z,30.50
2023-05-01T10:13:24.252Z,30.01
2023-05-01T10:16:31.315Z,27.77
2023-05-01T10:19:34.251Z,29.52
2023-05-01T10:22:37.310Z,30.27
2023-05-01T10:25:42.109Z,27.29
2023-05-01T10:28:48.097Z,28.83
2023-05-01T10:31:51.177Z,28.03
2023-05-01T10:35:02.200Z,28.68
2023-05-01T10:38:07.903Z,30.70
2023-05-01T10:41:11.183Z,29.41
2023-05-01T10:44:22.058Z,29.01
2023-05-01T10:47:24.980Z,26.75
2023-05-01T10:50:28.023Z,27.66
2023-05-01T10:53:31.000Z,27.55
2023-05-01T10:56:34.173Z,28.82
2023-05-01T10:59:58.904Z,28.28
2023-05-01T11:03:23.633Z,31.00
2023-05-01T11:06:27.215Z,31.74
2023-05-01T11:09:47.379Z,30.66
2023-05-01T11:12:51.845Z,28.67
2023-05-01T11:15:54.891Z,26.54
2023-05-01T11:18:57.773Z,28.26
2023-05-01T11:22:01.193Z,29.35
2023-05-01T11:25:05.282Z,27.31
2023-05-01T11:28:09.798Z,27.27
2023-05-01T11:31:18.057Z,28.15
2023-05-01T11:34:20.982Z,27.86
2023-05-01T11:37:44.460Z,27.42
2023-05-01T11:40:55.721Z,26.77
2023-05-01T11:43:59.505Z,27.55
2023-05-01T11:47:02.536Z,26.77
2023-05-01T11:50:09.822Z,27.32
2023-05-01T11:53:18.804Z,27.78
2023-05-01T11:56:26.663Z,29.49
2023-05-01T11:59:30.714Z,29.02
2023-05-01T12:02:34.034Z,29.61
2023-05-01T12:05:39.291Z,26.22
2023-05-01T12:08:51.289Z,26.41
2023-05-01T12:11:54.787Z,26.89
2023-05-01T12:14:57.760Z,26.38
2023-05-01T12:18:01.225Z,26.74
2023-05-01T12:21:04.209Z,27.77
2023-05-01T12:24:18.904Z,27.86
2023-05-01T12:27:22.530Z,27.19
2023-05-01T12:30:27.300Z,25.77
2023-05-01T12:33:31.448Z,25.71
2023-05-01T12:36:36.394Z,25.86
2023-05-01T12:39:42.666Z,26.57
2023-05-01T12:42:54.764Z,27.77
2023-05-01T12:45:57.913Z,27.99
2023-05-01T12:49:01.283Z,28.51
2023-05-01T12:52:06.481Z,27.20
2023-05-01T12:55:09.826Z,25.56
2023-05-01T12:58:13.291Z,28.97
2023-05-01T13:01:26.139Z,29.24
2023-05-01T13:04:30.023Z,26.26
2023-05-01T13:07:33.141Z,27.54
2023-05-01T13:10:36.223Z,28.60
2023-05-01T13:13:39.516Z,29.11
2023-05-01T13:16:49.186Z,28.73
2023-05-01T13:20:05.337Z,30.55
2023-05-01T13:23:13.039Z,31.34
2023-05-01T13:26:16.357Z,30.51
2023-05-01T13:29:19.226Z,30.31
2023-05-01T13:32:22.180Z,29.44
2023-05-01T13:35:27.081Z,27.64
2023-05-01T13:38:31.960Z,26.82
2023-05-01T13:41:36.034Z,28.57
2023-05-01T13:44:51.334Z,27.76
2023-05-01T13:47:55.467Z,26.46
2023-05-01T13:50:58.377Z,25.71
2023-05-01T13:54:03.528Z,25.01
2023-05-01T13:57:06.440Z,24.49
2023-05-01T14:00:14.776Z,24.18
2023-05-01T14:03:18.997Z,23.66
2023-05-01T14:06:22.013Z,24.10
2023-05-01T14:09:24.993Z,23.43
2023-05-01T14:12:32.150Z,24.15
2023-05-01T14:15:35.060Z,23.66
2023-05-01T14:18:45.920Z,24.46
2023-05-01T14:21:48.715Z,24.90
2023-05-01T14:24:51.650Z,24.61
2023-05-01T14:27:55.643Z,24.60
2023-05-01T14:30:58.696Z,23.45
2023-05-01T14:34:04.038Z,23.89
2023-05-01T14:37:07.074Z,23.58
2023-05-01T14:40:12.870Z,23.34
2023-05-01T14:43:20.756Z,23.30
2023-05-01T14:46:35.724Z,22.84
2023-05-01T14:49:42.011Z,23.17
2023-05-01T14:52:45.180Z,22.70
2023-05-01T14:55:51.231Z,22.36
2023-05-01T14:58:54.075Z,23.06
2023-05-01T15:01:57.193Z,22.57
2023-05-01T15:05:00.584Z,22.81
2023-05-01T15:08:06.765Z,22.75
2023-05-01T15:11:09.638Z,23.03
2023-05-01T15:14:12.558Z,22.84
2023-05-01T15:17:15.568Z,23.31
2023-05-01T15:20:19.077Z,23.32
2023-05-01T15:23:21.900Z,22.36
2023-05-01T15:26:24.838Z,22.18
2023-05-01T15:29:27.563Z,22.09
2023-05-01T15:32:30.389Z,21.90
2023-05-01T15:35:33.746Z,21.72
2023-05-01T15:38:36.561Z,21.93
2023-05-01T15:41:39.403Z,22.24
2023-05-01T15:44:42.300Z,22.31
2023-05-01T15:47:46.600Z,21.99
2023-05-01T15:50:49.556Z,21.62
2023-05-01T15:53:52.365Z,21.67
2023-05-01T15:56:55.275Z,21.74
2023-05-01T15:59:58.419Z,21.74
2023-05-01T16:03:04.547Z,21.59
2023-05-01T16:06:08.902Z,21.74
2023-05-01T16:09:12.991Z,21.44
2023-05-01T16:12:15.936Z,21.30
2023-05-01T16:15:19.021Z,21.36
2023-05-01T16:18:24.533Z,21.13
2023-05-01T16:21:28.584Z,21.06
2023-05-01T16:24:35.207Z,21.14
2023-05-01T16:27:44.342Z,21.18
2023-05-01T16:30:48.301Z,21.17
2023-05-01T16:33:53.380Z,21.04
2023-05-01T16:36:57.080Z,20.81
2023-05-01T16:40:00.478Z,20.74
2023-05-01T16:43:04.733Z,20.58
2023-05-01T16:46:07.529Z,20.57
2023-05-01T16:49:16.413Z,20.42
2023-05-01T16:52:19.348Z,20.38
2023-05-01T16:55:23.182Z,20.24
2023-05-01T16:58:26.763Z,20.13
2023-05-01T17:01:29.655Z,20.03
2023-05-01T17:04:32.659Z,19.95
2023-05-01T17:07:35.787Z,19.86
2023-05-01T17:10:38.757Z,19.79
2023-05-01T17:13:42.112Z,19.69
2023-05-01T17:16:45.805Z,19.58
2023-05-01T17:19:50.321Z,19.52
2023-05-01T17:22:53.192Z,19.41
2023-05-01T17:25:56.561Z,19.31
2023-05-01T17:29:01.136Z,19.23
2023-05-01T17:32:06.584Z,19.10
2023-05-01T17:35:09.939Z,18.99
2023-05-01T17:38:12.867Z,18.86
2023-05-01T17:41:15.894Z,18.78
2023-05-01T17:44:18.777Z,18.70
2023-05-01T17:47:23.179Z,18.67
2023-05-01T17:50:29.349Z,18.57
2023-05-01T17:53:32.328Z,18.45
2023-05-01T17:56:35.261Z,18.37
2023-05-01T17:59:38.632Z,18.30
2023-05-01T18:02:44.738Z,18.21
2023-05-01T18:05:47.928Z,18.14
2023-05-01T18:08:50.769Z,18.09
2023-05-01T18:11:53.547Z,18.03
2023-05-01T18:14:56.628Z,18.01
2023-05-01T18:17:59.577Z,17.90
2023-05-01T18:21:02.444Z,17.85
2023-05-01T18:24:05.441Z,17.81
2023-05-01T18:27:12.584Z,17.75
2023-05-01T18:30:17.260Z,17.65
2023-05-01T18:33:21.637Z,17.52
2023-05-01T18:36:24.836Z,17.44
2023-05-01T18:39:28.253Z,17.34
2023-05-01T18:42:31.397Z,17.29
2023-05-01T18:45:34.676Z,17.22
2023-05-01T18:48:38.272Z,17.14
2023-05-01T18:51:41.468Z,17.10
2023-05-01T18:54:45.622Z,17.05
2023-05-01T18:57:48.702Z,17.04
2023-05-01T19:00:51.779Z,16.98
2023-05-01T19:03:59.056Z,16.91
2023-05-01T19:07:02.212Z,16.84
2023-05-01T19:10:05.787Z,16.79
2023-05-01T19:13:08.705Z,16.75
2023-05-01T19:16:11.768Z,16.71
2023-05-01T19:19:14.579Z,16.72
2023-05-01T19:22:18.532Z,16.64
2023-05-01T19:25:24.012Z,16.60
2023-05-01T19:28:27.223Z,16.58
2023-05-01T19:31:30.542Z,16.51
2023-05-01T19:34:33.486Z,16.44
2023-05-01T19:37:36.822Z,16.41
2023-05-01T19:40:42.364Z,16.35
2023-05-01T19:43:45.150Z,16.25
2023-05-01T19:46:48.706Z,16.10
2023-05-01T19:49:51.819Z,15.96
2023-05-01T19:52:54.939Z,15.94
2023-05-01T19:55:58.860Z,15.82
2023-05-01T19:59:01.811Z,15.74
2023-05-01T20:02:08.311Z,15.76
2023-05-01T20:05:13.235Z,15.71
2023-05-01T20:08:16.338Z,15.67
2023-05-01T20:11:19.133Z,15.67
2023-05-01T20:14:22.190Z,15.61
2023-05-01T20:17:25.111Z,15.57
2023-05-01T20:20:28.252Z,15.51
2023-05-01T20:23:31.323Z,15.49
2023-05-01T20:26:34.255Z,15.42
2023-05-01T20:29:37.236Z,15.42
2023-05-01T20:32:44.105Z,15.38
2023-05-01T20:35:47.734Z,15.32
2023-05-01T20:38:53.221Z,15.24
2023-05-01T20:41:56.865Z,15.19
2023-05-01T20:44:59.941Z,15.13
2023-05-01T20:48:02.977Z,15.13
2023-05-01T20:51:05.833Z,15.06
2023-05-01T20:54:08.686Z,14.99
2023-05-01T20:57:11.754Z,14.93
2023-05-01T21:00:14.988Z,14.87
2023-05-01T21:03:18.031Z,14.76
2023-05-01T21:06:36.907Z,14.76
2023-05-01T21:09:49.015Z,14.66
2023-05-01T21:12:55.132Z,14.64
2023-05-01T21:15:58.117Z,14.62
2023-05-01T21:19:01.017Z,14.57
2023-05-01T21:22:15.996Z,14.53
2023-05-01T21:25:26.968Z,14.51
2023-05-01T21:28:30.323Z,14.45
2023-05-01T21:31:33.269Z,14.42
2023-05-01T21:34:36.245Z,14.37
2023-05-01T21:37:39.136Z,14.30
2023-05-01T21:40:42.827Z,14.28
2023-05-01T21:43:46.009Z,14.24
2023-05-01T21:46:48.969Z,14.19
2023-05-01T21:49:57.031Z,14.15
2023-05-01T21:53:00.172Z,14.09
2023-05-01T21:56:03.431Z,14.06
2023-05-01T21:59:06.327Z,14.02
2023-05-01T22:02:11.087Z,14.00
2023-05-01T22:05:15.693Z,13.94
2023-05-01T22:08:19.195Z,13.96
2023-05-01T22:11:24.534Z,13.90
2023-05-01T22:14:36.600Z,13.90
2023-05-01T22:17:46.925Z,13.82
2023-05-01T22:20:49.745Z,13.77
2023-05-01T22:23:52.832Z,13.72
2023-05-01T22:26:56.265Z,13.69
2023-05-01T22:29:59.763Z,13.69
2023-05-01T22:33:03.026Z,13.64
2023-05-01T22:36:07.558Z,13.58
2023-05-01T22:39:10.789Z,13.51
2023-05-01T22:42:13.534Z,13.48
2023-05-01T22:45:16.387Z,13.47
2023-05-01T22:48:19.104Z,13.42
2023-05-01T22:51:21.924Z,13.41
2023-05-01T22:54:25.034Z,13.33
2023-05-01T22:57:27.835Z,13.34
2023-05-01T23:00:31.254Z,13.32
2023-05-01T23:03:36.490Z,13.27
2023-05-01T23:06:41.103Z,13.14
2023-05-01T23:09:44.824Z,13.00
2023-05-01T23:12:48.387Z,12.90
2023-05-01T23:15:52.524Z,12.78
2023-05-01T23:18:56.111Z,12.64
2023-05-01T23:22:09.398Z,12.58
2023-05-01T23:25:14.051Z,12.48
2023-05-01T23:28:22.255Z,12.32
2023-05-01T23:31:26.175Z,12.33
2023-05-01T23:34:39.600Z,12.28
2023-05-01T23:37:42.613Z,12.23
2023-05-01T23:40:46.182Z,12.37
2023-05-01T23:43:49.253Z,12.46
2023-05-01T23:46:52.429Z,12.48
2023-05-01T23:49:55.539Z,12.48
2023-05-01T23:52:58.535Z,12.43
2023-05-01T23:56:01.456Z,12.33
2023-05-01T23:59:04.450Z,12.29
